Wetterdaten: Woche 04.04.16 - 10.04.16 (KW14)
Datum Zeit Temp. A. Feuchte A. Luftdruck Regen Wind Richtung Sonnenschein ET UV Solar Taupunkt Windchill Windben Empfang
04.04.2016 00:00 9,3 C 85 % 1009,1 hPa 0,0 l/m 3,6 km/h (1 Bft) S-SW 0,00 h 0,000 mm 0,0 UV-I 0 W/m 6,9 C 9,3 C 4,9 km/h (1 Bft) 99,11 %
04.04.2016 01:00 8,6 C 89 % 1008,8 hPa 0,0 l/m 2,6 km/h (1 Bft) S 0,00 h 0,000 mm 0,0 UV-I 0 W/m 6,8 C 8,6 C 3,8 km/h (1 Bft) 98,13 %
04.04.2016 02:00 8,0 C 91 % 1008,4 hPa 0,0 l/m 2,7 km/h (1 Bft) S 0,00 h 0,000 mm 0,0 UV-I 0 W/m 6,6 C 8,0 C 3,8 km/h (1 Bft) 98,80 %
04.04.2016 03:00 7,3 C 92 % 1008,2 hPa 0,0 l/m 2,4 km/h (1 Bft) S 0,00 h 0,000 mm 0,0 UV-I 0 W/m 6,2 C 7,3 C 3,7 km/h (1 Bft) 98,24 %
04.04.2016 04:00 6,8 C 93 % 1007,8 hPa 0,0 l/m 0,7 km/h (0 Bft) S 0,00 h 0,000 mm 0,0 UV-I 0 W/m 5,7 C 6,8 C 1,4 km/h (1 Bft) 98,14 %
04.04.2016 05:00 6,0 C 95 % 1007,6 hPa 0,0 l/m 1,6 km/h (1 Bft) S 0,00 h 0,000 mm 0,0 UV-I 0 W/m 5,1 C 6,0 C 2,5 km/h (1 Bft) 98,67 %
04.04.2016 06:00 5,5 C 95 % 1007,5 hPa 0,0 l/m 0,9 km/h (0 Bft) SO 0,03 h 0,000 mm 0,0 UV-I 12 W/m 4,8 C 5,5 C 1,7 km/h (1 Bft) 97,53 %
04.04.2016 07:00 6,0 C 95 % 1007,5 hPa 0,0 l/m 1,4 km/h (1 Bft) S-SO 0,00 h 0,000 mm 0,0 UV-I 57 W/m 5,2 C 6,0 C 2,3 km/h (1 Bft) 98,88 %
04.04.2016 08:00 8,0 C 92 % 1007,7 hPa 0,0 l/m 0,1 km/h (0 Bft) O 0,67 h 0,025 mm 0,5 UV-I 185 W/m 6,9 C 8,0 C 0,3 km/h (0 Bft) 97,74 %
04.04.2016 09:00 11,2 C 84 % 1007,8 hPa 0,0 l/m 2,8 km/h (1 Bft) NO 1,00 h 0,077 mm 1,1 UV-I 375 W/m 8,6 C 11,2 C 4,4 km/h (1 Bft) 98,82 %
04.04.2016 10:00 14,0 C 74 % 1007,9 hPa 0,0 l/m 1,6 km/h (1 Bft) NO 1,00 h 0,177 mm 2,0 UV-I 513 W/m 9,4 C 14,0 C 3,1 km/h (1 Bft) 97,75 %
04.04.2016 11:00 16,4 C 63 % 1007,7 hPa 0,0 l/m 2,3 km/h (1 Bft) S 0,98 h 0,280 mm 2,8 UV-I 615 W/m 9,4 C 16,4 C 4,2 km/h (1 Bft) 98,94 %
04.04.2016 12:00 18,4 C 57 % 1007,4 hPa 0,0 l/m 3,0 km/h (1 Bft) W 0,87 h 0,330 mm 3,0 UV-I 578 W/m 9,6 C 18,4 C 5,2 km/h (1 Bft) 97,81 %
04.04.2016 13:00 20,0 C 52 % 1007,1 hPa 0,0 l/m 2,2 km/h (1 Bft) NW 0,93 h 0,330 mm 3,3 UV-I 618 W/m 9,8 C 20,0 C 3,9 km/h (1 Bft) 99,15 %
04.04.2016 14:00 21,8 C 45 % 1006,5 hPa 0,0 l/m 2,9 km/h (1 Bft) NW 1,00 h 0,381 mm 3,1 UV-I 667 W/m 9,2 C 21,8 C 4,9 km/h (1 Bft) 97,75 %
04.04.2016 15:00 22,7 C 43 % 1005,8 hPa 0,0 l/m 3,8 km/h (1 Bft) NW 1,00 h 0,432 mm 2,2 UV-I 578 W/m 9,4 C 22,6 C 6,1 km/h (2 Bft) 98,75 %
04.04.2016 16:00 22,7 C 42 % 1005,3 hPa 0,0 l/m 3,1 km/h (1 Bft) NO 1,00 h 0,381 mm 1,3 UV-I 436 W/m 9,2 C 22,7 C 4,9 km/h (1 Bft) 98,34 %
04.04.2016 17:00 22,7 C 43 % 1004,8 hPa 0,0 l/m 3,9 km/h (1 Bft) NO 1,00 h 0,305 mm 0,7 UV-I 276 W/m 9,3 C 22,7 C 5,8 km/h (2 Bft) 98,84 %
04.04.2016 18:00 21,8 C 45 % 1004,8 hPa 0,0 l/m 2,9 km/h (1 Bft) NO 0,53 h 0,203 mm 0,0 UV-I 101 W/m 9,1 C 21,8 C 4,1 km/h (1 Bft) 98,69 %
04.04.2016 19:00 18,4 C 56 % 1005,0 hPa 0,0 l/m 2,7 km/h (1 Bft) O-SO 0,05 h 0,102 mm 0,0 UV-I 18 W/m 9,6 C 18,4 C 3,7 km/h (1 Bft) 98,70 %
04.04.2016 20:00 16,5 C 60 % 1005,3 hPa 0,0 l/m 3,4 km/h (1 Bft) O-SO 0,00 h 0,025 mm 0,0 UV-I 0 W/m 8,7 C 16,5 C 5,1 km/h (1 Bft) 98,55 %
04.04.2016 21:00 14,5 C 66 % 1005,6 hPa 0,0 l/m 2,9 km/h (1 Bft) O-SO 0,00 h 0,025 mm 0,0 UV-I 0 W/m 8,3 C 14,5 C 4,1 km/h (1 Bft) 98,96 %
04.04.2016 22:00 13,1 C 71 % 1005,3 hPa 0,0 l/m 2,7 km/h (1 Bft) S-SW 0,00 h 0,026 mm 0,0 UV-I 0 W/m 8,0 C 13,1 C 3,9 km/h (1 Bft) 97,41 %
04.04.2016 23:00 12,2 C 74 % 1005,2 hPa 0,0 l/m 3,4 km/h (1 Bft) SO 0,00 h 0,025 mm 0,0 UV-I 0 W/m 7,8 C 12,2 C 4,8 km/h (1 Bft) 99,53 %
05.04.2016 00:00 10,7 C 80 % 1004,8 hPa 0,0 l/m 1,7 km/h (1 Bft) S 0,00 h 0,000 mm 0,0 UV-I 0 W/m 7,4 C 10,7 C 2,7 km/h (1 Bft) 97,74 %
05.04.2016 01:00 10,0 C 82 % 1004,5 hPa 0,0 l/m 0,8 km/h (0 Bft) S 0,00 h 0,000 mm 0,0 UV-I 0 W/m 7,0 C 10,0 C 1,6 km/h (1 Bft) 99,14 %
05.04.2016 02:00 9,4 C 83 % 1004,5 hPa 0,0 l/m 1,7 km/h (1 Bft) S 0,00 h 0,000 mm 0,0 UV-I 0 W/m 6,7 C 9,4 C 2,7 km/h (1 Bft) 98,39 %
05.04.2016 03:00 8,6 C 86 % 1004,2 hPa 0,0 l/m 2,1 km/h (1 Bft) S 0,00 h 0,000 mm 0,0 UV-I 0 W/m 6,4 C 8,6 C 3,2 km/h (1 Bft) 99,18 %
05.04.2016 04:00 8,6 C 87 % 1004,0 hPa 0,0 l/m 1,4 km/h (1 Bft) S-SW 0,00 h 0,000 mm 0,0 UV-I 0 W/m 6,6 C 8,6 C 2,3 km/h (1 Bft) 98,95 %
05.04.2016 05:00 8,5 C 88 % 1004,0 hPa 0,0 l/m 1,4 km/h (1 Bft) S-SW 0,00 h 0,000 mm 0,0 UV-I 0 W/m 6,6 C 8,5 C 2,3 km/h (1 Bft) 98,34 %
05.04.2016 06:00 7,8 C 90 % 1004,2 hPa 0,0 l/m 0,8 km/h (0 Bft) S-SW 0,03 h 0,000 mm 0,0 UV-I 11 W/m 6,2 C 7,8 C 1,5 km/h (1 Bft) 99,42 %
05.04.2016 07:00 7,9 C 90 % 1004,5 hPa 0,0 l/m 1,5 km/h (1 Bft) S-SW 0,00 h 0,000 mm 0,0 UV-I 56 W/m 6,4 C 7,9 C 2,3 km/h (1 Bft) 97,68 %
05.04.2016 08:00 9,5 C 87 % 1004,6 hPa 0,0 l/m 0,2 km/h (0 Bft) S-SW 0,18 h 0,025 mm 0,5 UV-I 143 W/m 7,4 C 9,5 C 0,5 km/h (0 Bft) 99,72 %
05.04.2016 09:00 12,4 C 79 % 1005,0 hPa 0,0 l/m 2,0 km/h (1 Bft) NO 0,82 h 0,077 mm 1,0 UV-I 310 W/m 8,8 C 12,4 C 3,3 km/h (1 Bft) 97,99 %
05.04.2016 10:00 14,2 C 76 % 1005,1 hPa 0,0 l/m 2,7 km/h (1 Bft) NO 0,73 h 0,152 mm 1,5 UV-I 346 W/m 10,1 C 14,2 C 4,3 km/h (1 Bft) 99,41 %
05.04.2016 11:00 16,1 C 72 % 1005,1 hPa 0,0 l/m 3,2 km/h (1 Bft) NO 0,82 h 0,178 mm 2,2 UV-I 483 W/m 10,9 C 16,0 C 5,1 km/h (1 Bft) 97,73 %
05.04.2016 12:00 18,1 C 65 % 1005,0 hPa 0,0 l/m 3,2 km/h (1 Bft) N-NO 0,92 h 0,279 mm 2,7 UV-I 543 W/m 11,4 C 18,1 C 5,4 km/h (1 Bft) 99,13 %
05.04.2016 13:00 19,9 C 57 % 1004,8 hPa 0,0 l/m 3,1 km/h (1 Bft) N-NO 0,80 h 0,330 mm 2,8 UV-I 546 W/m 11,1 C 19,9 C 5,0 km/h (1 Bft) 98,13 %
05.04.2016 14:00 21,8 C 50 % 1004,6 hPa 0,0 l/m 3,6 km/h (1 Bft) NO 0,93 h 0,331 mm 3,0 UV-I 653 W/m 10,9 C 21,8 C 5,8 km/h (2 Bft) 99,05 %
05.04.2016 15:00 23,4 C 39 % 1004,4 hPa 0,0 l/m 1,7 km/h (1 Bft) N-NO 1,02 h 0,381 mm 1,8 UV-I 457 W/m 8,5 C 23,4 C 3,7 km/h (1 Bft) 99,45 %
05.04.2016 16:00 23,6 C 35 % 1004,4 hPa 0,0 l/m 1,3 km/h (1 Bft) O-NO 0,40 h 0,304 mm 1,0 UV-I 286 W/m 7,2 C 23,6 C 2,5 km/h (1 Bft) 98,95 %
05.04.2016 17:00 23,6 C 37 % 1004,5 hPa 0,0 l/m 1,4 km/h (1 Bft) O 0,90 h 0,204 mm 0,6 UV-I 282 W/m 7,9 C 23,6 C 2,5 km/h (1 Bft) 98,06 %
05.04.2016 18:00 22,2 C 42 % 1004,4 hPa 0,0 l/m 3,8 km/h (1 Bft) O 0,18 h 0,203 mm 0,0 UV-I 82 W/m 8,7 C 22,2 C 5,3 km/h (1 Bft) 98,65 %
05.04.2016 19:00 19,5 C 51 % 1004,5 hPa 0,0 l/m 5,2 km/h (1 Bft) O-SO 0,00 h 0,101 mm 0,0 UV-I 16 W/m 9,2 C 19,5 C 7,0 km/h (2 Bft) 98,60 %
05.04.2016 20:00 18,3 C 51 % 1004,7 hPa 0,0 l/m 4,8 km/h (1 Bft) O-SO 0,00 h 0,051 mm 0,0 UV-I 0 W/m 8,0 C 18,3 C 7,0 km/h (2 Bft) 98,67 %
05.04.2016 21:00 17,3 C 55 % 1004,9 hPa 0,0 l/m 5,0 km/h (1 Bft) SO 0,00 h 0,051 mm 0,0 UV-I 0 W/m 8,1 C 17,3 C 7,5 km/h (2 Bft) 98,45 %
05.04.2016 22:00 14,7 C 68 % 1005,1 hPa 0,0 l/m 2,6 km/h (1 Bft) SO 0,00 h 0,025 mm 0,0 UV-I 0 W/m 8,8 C 14,7 C 3,7 km/h (1 Bft) 99,46 %
05.04.2016 23:00 14,2 C 72 % 1006,2 hPa 0,0 l/m 13,0 km/h (3 Bft) SW 0,00 h 0,026 mm 0,0 UV-I 0 W/m 9,3 C 11,1 C 17,8 km/h (3 Bft) 98,44 %
06.04.2016 00:00 14,4 C 75 % 1007,3 hPa 0,0 l/m 16,5 km/h (3 Bft) SW 0,00 h 0,000 mm 0,0 UV-I 0 W/m 10,1 C 10,1 C 22,0 km/h (4 Bft) 99,70 %
06.04.2016 01:00 14,6 C 75 % 1008,1 hPa 0,0 l/m 16,9 km/h (3 Bft) W-SW 0,00 h 0,051 mm 0,0 UV-I 0 W/m 10,2 C 10,2 C 23,2 km/h (4 Bft) 98,27 %
06.04.2016 02:00 14,1 C 74 % 1008,9 hPa 0,0 l/m 16,5 km/h (3 Bft) W-SW 0,00 h 0,051 mm 0,0 UV-I 0 W/m 9,6 C 9,7 C 23,3 km/h (4 Bft) 99,63 %
06.04.2016 03:00 13,3 C 75 % 1009,3 hPa 0,0 l/m 12,7 km/h (3 Bft) W 0,00 h 0,050 mm 0,0 UV-I 0 W/m 8,9 C 10,2 C 18,7 km/h (3 Bft) 97,88 %
06.04.2016 04:00 13,1 C 75 % 1009,9 hPa 0,0 l/m 13,5 km/h (3 Bft) W-SW 0,00 h 0,051 mm 0,0 UV-I 0 W/m 8,8 C 9,6 C 18,9 km/h (3 Bft) 99,55 %
06.04.2016 05:00 12,8 C 76 % 1010,5 hPa 0,0 l/m 14,0 km/h (3 Bft) W-SW 0,00 h 0,051 mm 0,0 UV-I 0 W/m 8,6 C 8,9 C 19,3 km/h (3 Bft) 98,20 %
06.04.2016 06:00 12,4 C 77 % 1010,9 hPa 0,0 l/m 10,9 km/h (2 Bft) W-SW 0,00 h 0,051 mm 0,0 UV-I 5 W/m 8,5 C 9,9 C 15,5 km/h (3 Bft) 99,19 %
06.04.2016 07:00 12,2 C 77 % 1011,4 hPa 0,0 l/m 10,1 km/h (2 Bft) W-SW 0,00 h 0,025 mm 0,0 UV-I 37 W/m 8,3 C 10,1 C 14,3 km/h (3 Bft) 97,32 %
06.04.2016 08:00 12,5 C 75 % 1011,9 hPa 0,0 l/m 12,8 km/h (3 Bft) W-SW 0,00 h 0,051 mm 0,0 UV-I 109 W/m 8,2 C 9,1 C 18,1 km/h (3 Bft) 99,27 %
06.04.2016 09:00 12,4 C 75 % 1012,5 hPa 0,0 l/m 12,6 km/h (3 Bft) W-SW 0,00 h 0,102 mm 0,5 UV-I 139 W/m 8,1 C 9,2 C 18,3 km/h (3 Bft) 98,19 %
06.04.2016 10:00 12,5 C 73 % 1013,1 hPa 0,0 l/m 11,6 km/h (2 Bft) W 0,00 h 0,101 mm 0,7 UV-I 166 W/m 7,8 C 9,6 C 17,3 km/h (3 Bft) 99,69 %
06.04.2016 11:00 12,1 C 73 % 1013,5 hPa 0,0 l/m 10,2 km/h (2 Bft) W 0,00 h 0,127 mm 0,8 UV-I 143 W/m 7,4 C 9,9 C 15,8 km/h (3 Bft) 97,86 %
06.04.2016 12:00 12,5 C 71 % 1013,6 hPa 0,0 l/m 10,6 km/h (2 Bft) W-SW 0,00 h 0,102 mm 0,9 UV-I 185 W/m 7,4 C 10,1 C 15,4 km/h (3 Bft) 99,02 %
06.04.2016 13:00 13,0 C 69 % 1013,4 hPa 0,0 l/m 9,9 km/h (2 Bft) W 0,23 h 0,127 mm 1,6 UV-I 327 W/m 7,4 C 10,9 C 14,6 km/h (3 Bft) 98,10 %
06.04.2016 14:00 13,1 C 69 % 1013,1 hPa 0,0 l/m 8,5 km/h (2 Bft) W-SW 0,00 h 0,203 mm 1,0 UV-I 195 W/m 7,5 C 11,8 C 12,8 km/h (3 Bft) 99,45 %
06.04.2016 15:00 13,4 C 68 % 1012,6 hPa 0,0 l/m 6,9 km/h (2 Bft) W-SW 0,07 h 0,127 mm 1,0 UV-I 243 W/m 7,5 C 12,6 C 10,4 km/h (2 Bft) 98,39 %
06.04.2016 16:00 13,6 C 67 % 1012,2 hPa 0,0 l/m 6,6 km/h (2 Bft) W-SW 0,30 h 0,152 mm 0,7 UV-I 230 W/m 7,5 C 13,0 C 10,1 km/h (2 Bft) 99,02 %
06.04.2016 17:00 13,6 C 66 % 1011,8 hPa 0,0 l/m 6,4 km/h (2 Bft) SW 0,00 h 0,153 mm 0,5 UV-I 134 W/m 7,4 C 13,2 C 9,5 km/h (2 Bft) 98,88 %
06.04.2016 18:00 13,3 C 68 % 1011,5 hPa 0,0 l/m 5,9 km/h (2 Bft) SW 0,00 h 0,101 mm 0,0 UV-I 57 W/m 7,4 C 13,0 C 8,7 km/h (2 Bft) 98,76 %
06.04.2016 19:00 12,7 C 71 % 1011,3 hPa 0,0 l/m 4,3 km/h (1 Bft) S-SW 0,00 h 0,051 mm 0,0 UV-I 9 W/m 7,6 C 12,7 C 6,0 km/h (2 Bft) 98,74 %
06.04.2016 20:00 12,1 C 76 % 1011,4 hPa 0,0 l/m 4,0 km/h (1 Bft) SW 0,00 h 0,026 mm 0,0 UV-I 0 W/m 7,9 C 12,1 C 5,5 km/h (1 Bft) 98,56 %
06.04.2016 21:00 11,6 C 78 % 1011,2 hPa 0,0 l/m 1,3 km/h (1 Bft) SW 0,00 h 0,025 mm 0,0 UV-I 0 W/m 7,9 C 11,6 C 2,5 km/h (1 Bft) 98,71 %
06.04.2016 22:00 11,1 C 82 % 1011,1 hPa 0,2 l/m 2,2 km/h (1 Bft) S 0,00 h 0,000 mm 0,0 UV-I 0 W/m 8,2 C 11,1 C 3,8 km/h (1 Bft) 98,83 %
06.04.2016 23:00 10,4 C 88 % 1011,3 hPa 0,0 l/m 2,2 km/h (1 Bft) S 0,00 h 0,000 mm 0,0 UV-I 0 W/m 8,4 C 10,4 C 4,0 km/h (1 Bft) 98,36 %
07.04.2016 00:00 9,8 C 92 % 1011,4 hPa 0,0 l/m 0,6 km/h (0 Bft) S-SO 0,00 h 0,000 mm 0,0 UV-I 0 W/m 8,5 C 9,8 C 1,3 km/h (1 Bft) 99,11 %
07.04.2016 01:00 9,6 C 94 % 1011,3 hPa 0,0 l/m 0,4 km/h (0 Bft) S-SO 0,00 h 0,000 mm 0,0 UV-I 0 W/m 8,7 C 9,6 C 1,0 km/h (0 Bft) 98,36 %
07.04.2016 02:00 9,5 C 94 % 1011,2 hPa 0,0 l/m 1,6 km/h (1 Bft) S-SO 0,00 h 0,000 mm 0,0 UV-I 0 W/m 8,6 C 9,5 C 3,0 km/h (1 Bft) 98,70 %
07.04.2016 03:00 9,3 C 95 % 1010,9 hPa 0,0 l/m 1,4 km/h (1 Bft) S-SO 0,00 h 0,000 mm 0,0 UV-I 0 W/m 8,4 C 9,3 C 2,7 km/h (1 Bft) 98,68 %
07.04.2016 04:00 9,2 C 94 % 1010,6 hPa 0,0 l/m 1,0 km/h (0 Bft) S-SO 0,00 h 0,000 mm 0,0 UV-I 0 W/m 8,4 C 9,2 C 1,8 km/h (1 Bft) 98,95 %
07.04.2016 05:00 8,6 C 95 % 1010,5 hPa 0,0 l/m 2,8 km/h (1 Bft) O 0,00 h 0,000 mm 0,0 UV-I 0 W/m 7,9 C 8,6 C 4,0 km/h (1 Bft) 98,04 %
07.04.2016 06:00 8,4 C 96 % 1010,4 hPa 0,0 l/m 0,7 km/h (0 Bft) O 0,00 h 0,000 mm 0,0 UV-I 9 W/m 7,8 C 8,4 C 1,4 km/h (1 Bft) 98,90 %
07.04.2016 07:00 8,7 C 97 % 1010,6 hPa 0,0 l/m 2,7 km/h (1 Bft) O 0,00 h 0,000 mm 0,0 UV-I 52 W/m 8,2 C 8,7 C 3,9 km/h (1 Bft) 98,55 %
07.04.2016 08:00 9,3 C 96 % 1010,8 hPa 0,6 l/m 0,9 km/h (0 Bft) O-NO 0,00 h 0,025 mm 0,0 UV-I 40 W/m 8,7 C 9,3 C 1,9 km/h (1 Bft) 98,69 %
07.04.2016 09:00 9,5 C 96 % 1011,6 hPa 3,8 l/m 2,5 km/h (1 Bft) S 0,00 h 0,026 mm 0,0 UV-I 35 W/m 8,9 C 9,5 C 4,1 km/h (1 Bft) 98,14 %
07.04.2016 10:00 10,0 C 96 % 1011,5 hPa 0,8 l/m 3,1 km/h (1 Bft) S-SO 0,00 h 0,025 mm 1,0 UV-I 121 W/m 9,3 C 10,0 C 5,6 km/h (1 Bft) 98,76 %
07.04.2016 11:00 11,1 C 90 % 1011,5 hPa 0,0 l/m 0,9 km/h (0 Bft) W-NW 0,00 h 0,051 mm 1,1 UV-I 181 W/m 9,5 C 11,1 C 2,1 km/h (1 Bft) 97,59 %
07.04.2016 12:00 11,0 C 91 % 1011,5 hPa 0,2 l/m 3,9 km/h (1 Bft) S-SO 0,00 h 0,076 mm 1,0 UV-I 168 W/m 9,5 C 10,9 C 6,6 km/h (2 Bft) 98,90 %
07.04.2016 13:00 11,3 C 87 % 1011,2 hPa 0,0 l/m 3,5 km/h (1 Bft) S-SO 0,00 h 0,076 mm 1,6 UV-I 268 W/m 9,2 C 11,3 C 5,8 km/h (2 Bft) 98,18 %
07.04.2016 14:00 12,0 C 81 % 1010,8 hPa 0,0 l/m 2,7 km/h (1 Bft) O 0,00 h 0,127 mm 1,4 UV-I 257 W/m 8,9 C 12,0 C 4,1 km/h (1 Bft) 98,97 %
07.04.2016 15:00 12,5 C 77 % 1010,2 hPa 0,0 l/m 2,6 km/h (1 Bft) O 0,32 h 0,127 mm 1,6 UV-I 335 W/m 8,7 C 12,5 C 4,4 km/h (1 Bft) 97,31 %
07.04.2016 16:00 12,7 C 78 % 1009,9 hPa 0,0 l/m 3,6 km/h (1 Bft) O-SO 0,00 h 0,178 mm 0,7 UV-I 169 W/m 8,9 C 12,7 C 5,5 km/h (1 Bft) 99,36 %
07.04.2016 17:00 12,4 C 80 % 1009,6 hPa 0,0 l/m 3,1 km/h (1 Bft) O 0,00 h 0,102 mm 0,0 UV-I 87 W/m 9,1 C 12,4 C 4,5 km/h (1 Bft) 96,71 %
07.04.2016 18:00 12,1 C 83 % 1009,4 hPa 0,0 l/m 4,0 km/h (1 Bft) O 0,00 h 0,051 mm 0,0 UV-I 46 W/m 9,3 C 12,1 C 5,4 km/h (1 Bft) 99,67 %
07.04.2016 19:00 11,4 C 87 % 1009,5 hPa 0,0 l/m 2,7 km/h (1 Bft) O 0,00 h 0,025 mm 0,0 UV-I 13 W/m 9,3 C 11,4 C 3,9 km/h (1 Bft) 97,88 %
07.04.2016 20:00 11,0 C 91 % 1009,9 hPa 0,0 l/m 0,6 km/h (0 Bft) O-SO 0,00 h 0,000 mm 0,0 UV-I 0 W/m 9,6 C 11,0 C 1,2 km/h (1 Bft) 99,45 %
07.04.2016 21:00 10,7 C 92 % 1010,3 hPa 0,0 l/m 0,9 km/h (0 Bft) O-SO 0,00 h 0,000 mm 0,0 UV-I 0 W/m 9,5 C 10,7 C 1,9 km/h (1 Bft) 98,27 %
07.04.2016 22:00 10,6 C 89 % 1010,6 hPa 0,0 l/m 4,8 km/h (1 Bft) W-SW 0,00 h 0,000 mm 0,0 UV-I 0 W/m 9,0 C 10,5 C 6,9 km/h (2 Bft) 98,89 %
07.04.2016 23:00 10,4 C 83 % 1010,8 hPa 0,0 l/m 8,2 km/h (2 Bft) W 0,00 h 0,000 mm 0,0 UV-I 0 W/m 7,5 C 9,0 C 12,5 km/h (3 Bft) 98,31 %
08.04.2016 00:00 9,6 C 87 % 1010,7 hPa 0,0 l/m 4,8 km/h (1 Bft) W 0,00 h 0,000 mm 0,0 UV-I 0 W/m 7,4 C 9,5 C 8,3 km/h (2 Bft) 99,00 %
08.04.2016 01:00 9,2 C 89 % 1010,8 hPa 0,0 l/m 5,3 km/h (1 Bft) W-SW 0,00 h 0,000 mm 0,0 UV-I 0 W/m 7,4 C 9,0 C 7,3 km/h (2 Bft) 98,46 %
08.04.2016 02:00 8,8 C 92 % 1010,7 hPa 0,8 l/m 5,2 km/h (1 Bft) W 0,00 h 0,000 mm 0,0 UV-I 0 W/m 7,5 C 8,6 C 8,2 km/h (2 Bft) 99,02 %
08.04.2016 03:00 8,1 C 95 % 1010,7 hPa 0,8 l/m 4,3 km/h (1 Bft) W 0,00 h 0,000 mm 0,0 UV-I 0 W/m 7,3 C 8,1 C 6,8 km/h (2 Bft) 97,99 %
08.04.2016 04:00 7,8 C 95 % 1010,4 hPa 0,0 l/m 5,7 km/h (1 Bft) W 0,00 h 0,000 mm 0,0 UV-I 0 W/m 7,0 C 7,6 C 8,7 km/h (2 Bft) 98,74 %
08.04.2016 05:00 7,5 C 95 % 1010,4 hPa 0,0 l/m 5,7 km/h (1 Bft) W-SW 0,00 h 0,000 mm 0,0 UV-I 0 W/m 6,7 C 7,3 C 8,5 km/h (2 Bft) 98,41 %
08.04.2016 06:00 7,1 C 95 % 1010,4 hPa 0,2 l/m 9,7 km/h (2 Bft) W-SW 0,00 h 0,000 mm 0,0 UV-I 0 W/m 6,4 C 4,7 C 13,7 km/h (3 Bft) 98,67 %
08.04.2016 07:00 6,7 C 96 % 1010,5 hPa 0,0 l/m 9,2 km/h (2 Bft) W-SW 0,00 h 0,000 mm 0,0 UV-I 9 W/m 6,1 C 4,5 C 13,2 km/h (3 Bft) 98,61 %
08.04.2016 08:00 6,6 C 95 % 1010,5 hPa 0,0 l/m 10,3 km/h (2 Bft) W-SW 0,00 h 0,000 mm 0,0 UV-I 22 W/m 5,9 C 3,7 C 14,8 km/h (3 Bft) 98,59 %
08.04.2016 09:00 6,1 C 96 % 1010,5 hPa 0,2 l/m 10,4 km/h (2 Bft) W-SW 0,00 h 0,025 mm 0,0 UV-I 32 W/m 5,5 C 3,1 C 15,0 km/h (3 Bft) 98,61 %
08.04.2016 10:00 6,0 C 96 % 1010,3 hPa 0,2 l/m 9,1 km/h (2 Bft) W-SW 0,00 h 0,026 mm 0,0 UV-I 42 W/m 5,4 C 3,8 C 13,3 km/h (3 Bft) 98,50 %
08.04.2016 11:00 6,0 C 96 % 1010,1 hPa 0,2 l/m 5,5 km/h (1 Bft) W-SW 0,00 h 0,025 mm 0,0 UV-I 43 W/m 5,5 C 5,7 C 8,1 km/h (2 Bft) 98,41 %
08.04.2016 12:00 6,3 C 96 % 1009,9 hPa 0,0 l/m 6,1 km/h (2 Bft) SW 0,00 h 0,026 mm 0,0 UV-I 75 W/m 5,7 C 5,9 C 8,9 km/h (2 Bft) 98,61 %
08.04.2016 13:00 6,6 C 96 % 1009,6 hPa 0,0 l/m 5,7 km/h (1 Bft) SW 0,00 h 0,025 mm 0,4 UV-I 93 W/m 6,1 C 6,4 C 8,3 km/h (2 Bft) 98,31 %
08.04.2016 14:00 6,8 C 96 % 1009,3 hPa 1,2 l/m 5,7 km/h (1 Bft) W-SW 0,00 h 0,051 mm 0,0 UV-I 55 W/m 6,2 C 6,5 C 8,5 km/h (2 Bft) 98,15 %
08.04.2016 15:00 6,8 C 96 % 1009,0 hPa 1,2 l/m 3,4 km/h (1 Bft) W-SW 0,00 h 0,025 mm 0,3 UV-I 77 W/m 6,2 C 6,8 C 5,3 km/h (1 Bft) 99,06 %
08.04.2016 16:00 7,0 C 95 % 1008,7 hPa 0,4 l/m 1,8 km/h (1 Bft) W-SW 0,00 h 0,026 mm 0,0 UV-I 60 W/m 6,3 C 7,0 C 3,3 km/h (1 Bft) 98,74 %
08.04.2016 17:00 6,8 C 95 % 1008,5 hPa 0,8 l/m 1,2 km/h (1 Bft) NW 0,00 h 0,025 mm 0,0 UV-I 26 W/m 6,1 C 6,8 C 2,7 km/h (1 Bft) 97,83 %
08.04.2016 18:00 6,7 C 96 % 1008,4 hPa 0,8 l/m 0,8 km/h (0 Bft) NW 0,00 h 0,025 mm 0,0 UV-I 33 W/m 6,1 C 6,7 C 2,0 km/h (1 Bft) 98,43 %
08.04.2016 19:00 6,4 C 97 % 1008,7 hPa 0,6 l/m 0,9 km/h (0 Bft) W-NW 0,00 h 0,026 mm 0,0 UV-I 12 W/m 5,9 C 6,4 C 2,3 km/h (1 Bft) 98,86 %
08.04.2016 20:00 6,1 C 97 % 1009,1 hPa 0,6 l/m 1,2 km/h (1 Bft) W-NW 0,00 h 0,000 mm 0,0 UV-I 0 W/m 5,6 C 6,1 C 2,5 km/h (1 Bft) 98,60 %
08.04.2016 21:00 6,1 C 97 % 1009,3 hPa 0,2 l/m 4,5 km/h (1 Bft) W 0,00 h 0,000 mm 0,0 UV-I 0 W/m 5,6 C 5,9 C 6,7 km/h (2 Bft) 98,40 %
08.04.2016 22:00 5,9 C 97 % 1009,1 hPa 0,2 l/m 6,9 km/h (2 Bft) W-SW 0,00 h 0,000 mm 0,0 UV-I 0 W/m 5,4 C 4,9 C 10,3 km/h (2 Bft) 98,53 %
08.04.2016 23:00 5,0 C 96 % 1009,0 hPa 0,2 l/m 7,7 km/h (2 Bft) W-SW 0,00 h 0,000 mm 0,0 UV-I 0 W/m 4,4 C 3,9 C 11,6 km/h (2 Bft) 98,70 %
09.04.2016 00:00 4,8 C 96 % 1008,7 hPa 0,0 l/m 7,7 km/h (2 Bft) SW 0,00 h 0,000 mm 0,0 UV-I 0 W/m 4,2 C 3,5 C 11,4 km/h (2 Bft) 98,24 %
09.04.2016 01:00 4,7 C 95 % 1008,4 hPa 0,0 l/m 8,4 km/h (2 Bft) SW 0,00 h 0,000 mm 0,0 UV-I 0 W/m 4,0 C 2,9 C 12,5 km/h (3 Bft) 98,50 %
09.04.2016 02:00 4,5 C 96 % 1008,0 hPa 0,0 l/m 8,2 km/h (2 Bft) SW 0,00 h 0,000 mm 0,0 UV-I 0 W/m 3,9 C 2,9 C 12,2 km/h (2 Bft) 97,90 %
09.04.2016 03:00 4,4 C 96 % 1007,6 hPa 0,0 l/m 8,0 km/h (2 Bft) SW 0,00 h 0,000 mm 0,0 UV-I 0 W/m 3,8 C 3,0 C 11,9 km/h (2 Bft) 99,01 %
09.04.2016 04:00 4,3 C 96 % 1007,3 hPa 0,0 l/m 7,5 km/h (2 Bft) SW 0,00 h 0,000 mm 0,0 UV-I 0 W/m 3,7 C 3,3 C 11,1 km/h (2 Bft) 98,35 %
09.04.2016 05:00 4,4 C 96 % 1007,2 hPa 0,0 l/m 7,6 km/h (2 Bft) SW 0,00 h 0,000 mm 0,0 UV-I 0 W/m 3,8 C 3,3 C 11,4 km/h (2 Bft) 98,84 %
09.04.2016 06:00 4,5 C 96 % 1007,4 hPa 0,0 l/m 7,1 km/h (2 Bft) W-SW 0,00 h 0,000 mm 0,0 UV-I 0 W/m 3,9 C 3,6 C 10,5 km/h (2 Bft) 98,41 %
09.04.2016 07:00 4,5 C 96 % 1007,5 hPa 0,2 l/m 6,6 km/h (2 Bft) SW 0,00 h 0,000 mm 0,0 UV-I 9 W/m 4,0 C 3,9 C 9,6 km/h (2 Bft) 99,24 %
09.04.2016 08:00 4,7 C 97 % 1007,6 hPa 0,4 l/m 5,5 km/h (1 Bft) SW 0,00 h 0,000 mm 0,0 UV-I 32 W/m 4,2 C 4,4 C 8,0 km/h (2 Bft) 97,90 %
09.04.2016 09:00 5,2 C 96 % 1007,4 hPa 0,0 l/m 7,4 km/h (2 Bft) SW 0,00 h 0,025 mm 0,4 UV-I 85 W/m 4,7 C 3,9 C 11,0 km/h (2 Bft) 98,95 %
09.04.2016 10:00 5,6 C 96 % 1007,5 hPa 0,0 l/m 6,8 km/h (2 Bft) W-SW 0,00 h 0,026 mm 0,0 UV-I 70 W/m 4,9 C 4,8 C 10,2 km/h (2 Bft) 97,29 %
09.04.2016 11:00 6,0 C 95 % 1007,3 hPa 0,0 l/m 4,9 km/h (1 Bft) W-SW 0,00 h 0,025 mm 0,5 UV-I 78 W/m 5,3 C 5,9 C 7,1 km/h (2 Bft) 99,29 %
09.04.2016 12:00 6,5 C 95 % 1007,3 hPa 0,0 l/m 4,1 km/h (1 Bft) W-SW 0,00 h 0,026 mm 0,6 UV-I 80 W/m 5,7 C 6,3 C 6,0 km/h (2 Bft) 97,83 %
09.04.2016 13:00 6,9 C 94 % 1007,1 hPa 0,0 l/m 7,2 km/h (2 Bft) SW 0,00 h 0,025 mm 0,6 UV-I 88 W/m 5,9 C 6,0 C 10,7 km/h (2 Bft) 98,92 %
09.04.2016 14:00 7,0 C 94 % 1006,9 hPa 0,0 l/m 5,7 km/h (1 Bft) W-SW 0,00 h 0,051 mm 0,0 UV-I 55 W/m 6,0 C 6,7 C 8,6 km/h (2 Bft) 97,62 %
09.04.2016 15:00 7,2 C 93 % 1006,7 hPa 0,0 l/m 5,6 km/h (1 Bft) W-SW 0,00 h 0,025 mm 0,0 UV-I 59 W/m 6,1 C 6,9 C 8,6 km/h (2 Bft) 99,34 %
09.04.2016 16:00 7,1 C 93 % 1006,6 hPa 0,0 l/m 4,2 km/h (1 Bft) W-SW 0,00 h 0,026 mm 0,0 UV-I 33 W/m 6,0 C 7,1 C 6,0 km/h (2 Bft) 97,91 %
09.04.2016 17:00 7,1 C 93 % 1006,8 hPa 0,0 l/m 3,6 km/h (1 Bft) SW 0,00 h 0,025 mm 0,0 UV-I 22 W/m 6,1 C 7,1 C 5,2 km/h (1 Bft) 98,92 %
09.04.2016 18:00 6,9 C 94 % 1007,0 hPa 0,0 l/m 2,1 km/h (1 Bft) SW 0,00 h 0,000 mm 0,0 UV-I 11 W/m 6,0 C 6,9 C 3,5 km/h (1 Bft) 97,64 %
09.04.2016 19:00 6,8 C 93 % 1007,5 hPa 0,0 l/m 2,1 km/h (1 Bft) S 0,00 h 0,000 mm 0,0 UV-I 6 W/m 5,8 C 6,8 C 3,1 km/h (1 Bft) 99,38 %
09.04.2016 20:00 6,8 C 94 % 1008,2 hPa 0,0 l/m 1,6 km/h (1 Bft) S-SW 0,00 h 0,000 mm 0,0 UV-I 0 W/m 5,8 C 6,8 C 2,7 km/h (1 Bft) 97,97 %
09.04.2016 21:00 6,6 C 95 % 1008,7 hPa 0,0 l/m 2,9 km/h (1 Bft) S-SW 0,00 h 0,000 mm 0,0 UV-I 0 W/m 5,9 C 6,6 C 4,0 km/h (1 Bft) 98,90 %
09.04.2016 22:00 6,4 C 96 % 1008,9 hPa 0,0 l/m 3,4 km/h (1 Bft) S-SW 0,00 h 0,000 mm 0,0 UV-I 0 W/m 5,8 C 6,4 C 5,0 km/h (1 Bft) 97,79 %
09.04.2016 23:00 6,3 C 96 % 1009,0 hPa 0,0 l/m 3,9 km/h (1 Bft) S-SW 0,00 h 0,000 mm 0,0 UV-I 0 W/m 5,7 C 6,3 C 5,6 km/h (1 Bft) 98,74 %
10.04.2016 00:00 6,2 C 96 % 1009,1 hPa 0,0 l/m 5,1 km/h (1 Bft) SW 0,00 h 0,000 mm 0,0 UV-I 0 W/m 5,6 C 6,1 C 7,4 km/h (2 Bft) 97,73 %
10.04.2016 01:00 6,1 C 96 % 1009,3 hPa 0,0 l/m 4,7 km/h (1 Bft) SW 0,00 h 0,000 mm 0,0 UV-I 0 W/m 5,5 C 6,1 C 6,8 km/h (2 Bft) 99,50 %
10.04.2016 02:00 6,1 C 96 % 1009,4 hPa 0,4 l/m 4,7 km/h (1 Bft) SW 0,00 h 0,000 mm 0,0 UV-I 0 W/m 5,6 C 6,1 C 6,7 km/h (2 Bft) 97,61 %
10.04.2016 03:00 6,0 C 97 % 1009,6 hPa 0,2 l/m 5,0 km/h (1 Bft) W-SW 0,00 h 0,000 mm 0,0 UV-I 0 W/m 5,6 C 6,0 C 6,8 km/h (2 Bft) 99,15 %
10.04.2016 04:00 6,0 C 97 % 1010,0 hPa 0,2 l/m 5,4 km/h (1 Bft) W-SW 0,00 h 0,000 mm 0,0 UV-I 0 W/m 5,6 C 6,0 C 7,7 km/h (2 Bft) 98,00 %
10.04.2016 05:00 6,1 C 97 % 1010,2 hPa 0,0 l/m 5,2 km/h (1 Bft) SW 0,00 h 0,000 mm 0,0 UV-I 0 W/m 5,7 C 6,1 C 7,0 km/h (2 Bft) 99,07 %
10.04.2016 06:00 6,1 C 97 % 1010,7 hPa 0,0 l/m 4,6 km/h (1 Bft) S-SW 0,00 h 0,000 mm 0,0 UV-I 0 W/m 5,7 C 6,1 C 6,4 km/h (2 Bft) 97,97 %
10.04.2016 07:00 6,1 C 97 % 1011,2 hPa 0,0 l/m 5,9 km/h (2 Bft) SW 0,00 h 0,000 mm 0,0 UV-I 10 W/m 5,6 C 5,9 C 8,2 km/h (2 Bft) 98,98 %
10.04.2016 08:00 6,5 C 95 % 1011,5 hPa 0,0 l/m 8,5 km/h (2 Bft) S-SW 0,00 h 0,000 mm 0,0 UV-I 39 W/m 5,7 C 4,8 C 12,6 km/h (3 Bft) 98,12 %
10.04.2016 09:00 7,1 C 93 % 1011,9 hPa 0,0 l/m 7,2 km/h (2 Bft) W-SW 0,00 h 0,025 mm 0,5 UV-I 84 W/m 6,1 C 6,2 C 10,8 km/h (2 Bft) 99,02 %
10.04.2016 10:00 8,5 C 89 % 1012,1 hPa 0,0 l/m 9,2 km/h (2 Bft) W-SW 0,35 h 0,051 mm 1,5 UV-I 318 W/m 6,9 C 6,6 C 13,9 km/h (3 Bft) 98,35 %
10.04.2016 11:00 9,9 C 84 % 1012,1 hPa 0,0 l/m 9,6 km/h (2 Bft) W-SW 0,37 h 0,153 mm 1,6 UV-I 349 W/m 7,4 C 7,8 C 14,3 km/h (3 Bft) 99,09 %
10.04.2016 12:00 10,7 C 78 % 1012,0 hPa 0,0 l/m 7,3 km/h (2 Bft) W-SW 0,43 h 0,177 mm 2,3 UV-I 432 W/m 7,1 C 9,9 C 11,4 km/h (2 Bft) 98,08 %
10.04.2016 13:00 12,0 C 65 % 1011,7 hPa 0,0 l/m 9,1 km/h (2 Bft) W-SW 0,73 h 0,229 mm 3,3 UV-I 604 W/m 5,6 C 10,3 C 13,9 km/h (3 Bft) 99,19 %
10.04.2016 14:00 13,1 C 59 % 1011,3 hPa 0,0 l/m 9,5 km/h (2 Bft) W-SW 0,72 h 0,330 mm 3,0 UV-I 650 W/m 5,3 C 11,3 C 14,6 km/h (3 Bft) 98,07 %
10.04.2016 15:00 12,8 C 58 % 1011,2 hPa 0,0 l/m 3,5 km/h (1 Bft) W 0,10 h 0,356 mm 1,4 UV-I 276 W/m 4,7 C 12,7 C 6,0 km/h (2 Bft) 99,48 %
10.04.2016 16:00 13,2 C 57 % 1011,1 hPa 0,0 l/m 3,0 km/h (1 Bft) NW 0,57 h 0,152 mm 1,0 UV-I 368 W/m 4,9 C 13,2 C 5,6 km/h (1 Bft) 97,85 %
10.04.2016 17:00 13,2 C 56 % 1011,0 hPa 0,0 l/m 3,4 km/h (1 Bft) W-SW 0,57 h 0,203 mm 0,6 UV-I 225 W/m 4,6 C 13,1 C 5,2 km/h (1 Bft) 99,73 %
10.04.2016 18:00 13,0 C 57 % 1011,0 hPa 0,0 l/m 4,1 km/h (1 Bft) SW 0,72 h 0,127 mm 0,0 UV-I 130 W/m 4,6 C 13,0 C 5,8 km/h (2 Bft) 97,90 %
10.04.2016 19:00 11,0 C 71 % 1011,2 hPa 0,0 l/m 3,6 km/h (1 Bft) SW 0,03 h 0,102 mm 0,0 UV-I 25 W/m 6,0 C 10,8 C 5,5 km/h (1 Bft) 99,35 %
10.04.2016 20:00 9,8 C 80 % 1011,7 hPa 0,0 l/m 6,5 km/h (2 Bft) O-NO 0,00 h 0,025 mm 0,0 UV-I 0 W/m 6,5 C 9,4 C 9,4 km/h (2 Bft) 97,83 %
10.04.2016 21:00 8,3 C 82 % 1012,0 hPa 0,0 l/m 6,0 km/h (2 Bft) NO 0,00 h 0,026 mm 0,0 UV-I 0 W/m 5,4 C 8,1 C 8,4 km/h (2 Bft) 99,45 %
10.04.2016 22:00 7,5 C 83 % 1012,2 hPa 0,0 l/m 7,8 km/h (2 Bft) NO 0,00 h 0,025 mm 0,0 UV-I 0 W/m 4,7 C 6,2 C 11,4 km/h (2 Bft) 97,50 %
10.04.2016 23:00 7,0 C 84 % 1012,6 hPa 0,0 l/m 8,3 km/h (2 Bft) NO 0,00 h 0,026 mm 0,0 UV-I 0 W/m 4,5 C 5,5 C 11,6 km/h (2 Bft) 99,28 %
Min-Datum _ 09.04.16 05.04.16 05.04.16 - 04.04.16 - - - - - 10.04.16 09.04.16 04.04.16 05.04.16
_ Min-Zeit 03:45 15:54 05:04 - 04:07 - - - - - 16:30 00:27 04:07 07:17
Minimum _ 4,3 C 32 % 1003,8 hPa - 0,0 km/h (0 Bft) - - - - - 3,7 C -0,9 C 0,0 km/h (0 Bft) 75,00 %
Max-Datum _ 05.04.16 07.04.16 06.04.16 07.04.16 06.04.16 - 04.04.16 04.04.16 10.04.16 10.04.16 05.04.16 05.04.16 06.04.16 04.04.16
_ Max-Zeit 15:54 07:12 11:42 09:09 01:34 - 15:36 15:00 13:00 12:46 12:02 15:52 02:10 00:00
Maximum _ 24,0 C 97 % 1013,6 hPa 3,8 l/m 27,2 km/h
W-SW (4 Bft)
- 0,10 h 0,432 mm 3,9 UV-I 881 W/m 12,6 C 23,9 C 37,0 km/h
W-SW (5 Bft)
100,00 %
Durchschnitt _ 10,5 C 82 % 1008,9 hPa #15,6 l/m 4,9 km/h (1 Bft) W-SW #23:18 h #11,075 mm 1,4 UV-I 186 W/m 7,1 C 9,9 C 7,3 km/h (2 Bft) 98,57 %